Terminal Aerodrome Forecast
Issued by NWS

Home | Current Version | Previous Version | Text Only | Print | Product List | Glossary On
Versions: 1 2 3 4 5 6 7 8 9 10 11 12 13 14 15 16 17 18 19 20 21 22 23 24 25 26 27 28 29 30 31 32 33 34
335
FTUS43 KDTX 241727
TAFPTK
TAF
KPTK 241727Z 2418/2518 21008KT P6SM -SHRA BKN010 BKN025 OVC080
     FM241900 22012G20KT P6SM SCT050 BKN100
     FM250100 21007KT P6SM BKN100 OVC250
     FM250300 21007KT P6SM -SHRA OVC080 PROB30 2503/2508 3SM TSRA BR
      OVC040CB
     FM250900 24008KT 5SM BR SCT020 BKN150
     FM251500 29012KT P6SM SCT050=

USA.gov is the U.S. government's official web portal to all federal, state and local government web resources and services.